Time;durP1;ratioP1;P1;durP2;ratioP2;P2;SDS_P1;SDS_P2;PMS_P1;PMS_P2;Temp;Humidity;BMP_temperature;BMP_pressure;BME280_temperature;BME280_humidity;BME280_pressure;Samples;Min_cycle;Max_cycle;Signal;HPM_P1;HPM_P2
2023/01/14 00:01:53;;;;;;;22.02;3.50;;;;;;;8.40;100.00;101471.56;5009370;28;20034;-59
2023/01/14 00:04:18;;;;;;;16.77;2.80;;;;;;;8.52;100.00;101470.50;5009227;28;20030;-60
2023/01/14 00:06:44;;;;;;;16.20;3.38;;;;;;;8.43;100.00;101473.31;5009811;28;20069;-61
2023/01/14 00:09:13;;;;;;;21.15;3.20;;;;;;;8.34;100.00;101469.91;5009452;28;20064;-62
2023/01/14 00:11:47;;;;;;;23.63;2.88;;;;;;;8.34;100.00;101456.78;5009740;28;20022;-62
2023/01/14 00:14:30;;;;;;;15.40;2.30;;;;;;;8.33;100.00;101454.16;4997306;28;20030;-64
2023/01/14 00:16:56;;;;;;;20.25;2.92;;;;;;;8.22;100.00;101452.56;5022579;28;20101;-60
2023/01/14 00:19:23;;;;;;;17.08;2.40;;;;;;;8.24;100.00;101468.28;5027896;28;20518;-61
2023/01/14 00:21:50;;;;;;;29.38;2.90;;;;;;;8.17;100.00;101458.78;5022798;28;20068;-61
2023/01/14 00:24:18;;;;;;;21.02;4.35;;;;;;;8.15;100.00;101460.53;5009811;28;20048;-62
2023/01/14 00:26:44;;;;;;;15.88;2.63;;;;;;;8.13;100.00;101454.47;5008867;28;20069;-62
2023/01/14 00:29:18;;;;;;;15.85;2.67;;;;;;;8.08;100.00;101468.53;5009441;28;20064;-61
2023/01/14 00:31:43;;;;;;;16.65;2.80;;;;;;;8.13;100.00;101462.34;4995633;28;20032;-62
2023/01/14 00:34:09;;;;;;;18.80;3.00;;;;;;;8.08;100.00;101463.28;4989142;28;20113;-62
2023/01/14 00:36:34;;;;;;;17.80;3.17;;;;;;;8.07;100.00;101461.53;4988619;28;20088;-62
2023/01/14 00:39:00;;;;;;;19.80;3.30;;;;;;;8.09;100.00;101462.38;4997193;28;20080;-62
2023/01/14 00:41:26;;;;;;;19.13;2.80;;;;;;;8.06;100.00;101457.16;4991969;28;20034;-61
2023/01/14 00:43:53;;;;;;;17.77;2.90;;;;;;;8.07;100.00;101461.53;5008627;28;20022;-61
2023/01/14 00:46:26;;;;;;;22.23;2.80;;;;;;;8.12;100.00;101466.72;5009379;28;20404;-62
2023/01/14 00:48:52;;;;;;;25.92;3.58;;;;;;;8.19;100.00;101462.25;4990003;28;20095;-59
2023/01/14 00:51:18;;;;;;;19.02;2.83;;;;;;;8.19;100.00;101464.88;5009624;28;20492;-61
2023/01/14 00:53:46;;;;;;;23.92;3.53;;;;;;;8.20;100.00;101466.59;4990957;28;20472;-62
2023/01/14 00:56:13;;;;;;;24.35;3.45;;;;;;;8.18;100.00;101456.13;5008707;28;20022;-62
2023/01/14 00:58:39;;;;;;;28.98;3.65;;;;;;;8.17;100.00;101453.53;5008303;28;20088;-62
2023/01/14 01:01:05;;;;;;;28.13;3.38;;;;;;;8.23;100.00;101456.06;5008710;28;20557;-63
2023/01/14 01:03:31;;;;;;;30.83;3.55;;;;;;;8.17;100.00;101450.91;5007444;28;20128;-61
2023/01/14 01:05:56;;;;;;;26.80;3.75;;;;;;;8.11;100.00;101443.09;5008760;28;20061;-61
2023/01/14 01:08:22;;;;;;;25.48;3.40;;;;;;;7.95;100.00;101444.19;5007975;28;20120;-64
2023/01/14 01:10:51;;;;;;;24.90;3.65;;;;;;;8.03;100.00;101440.56;5008626;28;20041;-63
2023/01/14 01:13:17;;;;;;;22.63;3.53;;;;;;;7.94;100.00;101444.19;5008933;28;20026;-64
2023/01/14 01:15:42;;;;;;;20.08;2.78;;;;;;;7.87;100.00;101450.41;5007948;28;20060;-62
2023/01/14 01:18:10;;;;;;;24.40;4.00;;;;;;;7.78;100.00;101447.03;5008600;28;20026;-63
2023/01/14 01:20:36;;;;;;;24.15;3.35;;;;;;;7.77;100.00;101447.91;4996158;28;20032;-64
2023/01/14 01:23:01;;;;;;;25.10;3.80;;;;;;;7.72;100.00;101444.47;5028360;28;20359;-63
2023/01/14 01:25:27;;;;;;;22.92;3.47;;;;;;;7.64;100.00;101441.06;5006824;28;20092;-63
2023/01/14 01:27:56;;;;;;;26.17;3.58;;;;;;;7.53;100.00;101451.69;5028091;28;20036;-61
2023/01/14 01:30:22;;;;;;;31.42;4.15;;;;;;;7.49;100.00;101445.59;5009128;28;20476;-63
2023/01/14 01:32:48;;;;;;;29.35;4.03;;;;;;;7.41;100.00;101448.31;5028197;28;20486;-62
2023/01/14 01:35:13;;;;;;;23.42;3.20;;;;;;;7.40;100.00;101438.72;5008044;28;20065;-61
2023/01/14 01:37:38;;;;;;;20.10;3.65;;;;;;;7.41;100.00;101429.09;5007917;28;20046;-62
2023/01/14 01:40:04;;;;;;;31.92;3.90;;;;;;;7.37;100.00;101425.63;5008030;28;20026;-62
2023/01/14 01:42:33;;;;;;;23.95;4.03;;;;;;;7.38;100.00;101437.88;5007110;28;20033;-62
2023/01/14 01:45:28;;;;;;;23.80;3.40;;;;;;;7.36;100.00;101442.25;5008178;28;20101;-64
2023/01/14 01:47:57;;;;;;;25.90;4.40;;;;;;;7.23;100.00;101438.91;4985303;28;20038;-62
2023/01/14 01:50:23;;;;;;;28.05;3.53;;;;;;;7.27;100.00;101424.88;4989377;28;20033;-63
2023/01/14 01:52:48;;;;;;;29.52;3.75;;;;;;;7.31;100.00;101423.97;5007541;28;20452;-63
2023/01/14 01:55:15;;;;;;;22.20;3.33;;;;;;;7.32;100.00;101416.97;5007696;28;20105;-63
2023/01/14 01:57:41;;;;;;;26.40;3.40;;;;;;;7.31;100.00;101416.09;4989940;28;20080;-64
2023/01/14 02:00:08;;;;;;;20.80;3.45;;;;;;;7.30;100.00;101406.50;5006534;28;20026;-63
2023/01/14 02:02:34;;;;;;;32.10;3.85;;;;;;;7.30;100.00;101401.25;5007505;28;20030;-64
2023/01/14 02:05:00;;;;;;;26.45;4.80;;;;;;;7.27;100.00;101401.28;4988887;28;20388;-62
2023/01/14 02:07:26;;;;;;;28.58;3.83;;;;;;;7.29;100.00;101394.25;4997172;28;20057;-62
2023/01/14 02:09:54;;;;;;;28.20;3.72;;;;;;;7.27;100.00;101384.69;5027067;28;20502;-62
2023/01/14 02:12:46;;;;;;;21.02;3.63;;;;;;;7.27;100.00;101382.94;5026831;28;20037;-63
2023/01/14 02:15:11;;;;;;;26.30;3.80;;;;;;;7.26;100.00;101375.97;5015233;28;20041;-62
2023/01/14 02:18:09;;;;;;;33.50;4.05;;;;;;;7.14;100.00;101368.22;5027637;28;20121;-64
2023/01/14 02:20:42;;;;;;;28.88;4.28;;;;;;;7.15;100.00;101362.97;5026745;28;20061;-64
2023/01/14 02:23:29;;;;;;;28.58;3.88;;;;;;;7.12;100.00;101364.75;5009913;28;20029;-62
2023/01/14 02:26:16;;;;;;;27.33;3.40;;;;;;;7.07;100.00;101365.66;5026220;28;20503;-62
2023/01/14 02:28:56;;;;;;;22.70;3.53;;;;;;;7.10;100.00;101356.06;5025597;28;20041;-62
2023/01/14 02:31:42;;;;;;;24.45;2.88;;;;;;;7.07;100.00;101359.56;5007424;28;20092;-62
2023/01/14 02:34:19;;;;;;;16.85;2.95;;;;;;;7.06;100.00;101352.59;5006622;28;20037;-62
2023/01/14 02:36:52;;;;;;;27.33;4.30;;;;;;;7.04;100.00;101355.22;4990010;28;20022;-62
2023/01/14 02:39:42;;;;;;;25.20;3.08;;;;;;;6.96;100.00;101357.06;5007412;28;20053;-63
2023/01/14 02:45:25;;;;;;;19.35;3.75;;;;;;;6.90;100.00;101347.53;4996092;28;20045;-63
2023/01/14 02:47:51;;;;;;;27.55;3.70;;;;;;;6.87;100.00;101346.69;5002789;28;20431;-63
2023/01/14 02:50:17;;;;;;;40.50;4.88;;;;;;;6.91;100.00;101356.22;5013245;28;20037;-63
2023/01/14 02:52:42;;;;;;;29.38;3.58;;;;;;;6.85;100.00;101349.31;5012616;28;20057;-64
2023/01/14 02:55:32;;;;;;;33.72;4.07;;;;;;;6.86;100.00;101351.03;5030232;28;20018;-62
2023/01/14 02:58:08;;;;;;;21.75;3.95;;;;;;;6.89;100.00;101337.91;4992193;28;20469;-61
2023/01/14 03:00:50;;;;;;;32.53;3.80;;;;;;;6.80;100.00;101332.75;4993139;28;20041;-64
2023/01/14 03:03:26;;;;;;;24.95;3.50;;;;;;;6.78;100.00;101324.94;4992551;28;20022;-64
2023/01/14 03:06:20;;;;;;;28.27;4.50;;;;;;;6.78;100.00;101322.31;5010201;28;20032;-64
2023/01/14 03:08:57;;;;;;;31.13;4.13;;;;;;;6.78;100.00;101327.56;5011248;28;20042;-64
2023/01/14 03:11:24;;;;;;;23.75;3.85;;;;;;;6.72;100.00;101319.75;4991325;28;20113;-60
2023/01/14 03:14:02;;;;;;;36.58;4.00;;;;;;;6.74;100.00;101309.28;5013355;28;20036;-63
2023/01/14 03:16:42;;;;;;;29.63;4.13;;;;;;;6.77;100.00;101310.09;5029636;28;20049;-63
2023/01/14 03:19:19;;;;;;;33.08;6.45;;;;;;;6.75;100.00;101300.53;5029578;28;20519;-64
2023/01/14 03:21:48;;;;;;;25.85;3.60;;;;;;;6.80;100.00;101301.31;4996126;28;20046;-62
2023/01/14 03:24:18;;;;;;;27.05;4.28;;;;;;;6.82;100.00;101294.31;4993011;28;20037;-61
2023/01/14 03:26:47;;;;;;;27.35;4.18;;;;;;;6.76;100.00;101278.66;4992527;28;20030;-63
2023/01/14 03:29:16;;;;;;;20.08;4.20;;;;;;;6.85;100.00;101277.69;4991929;28;20026;-62
2023/01/14 03:31:44;;;;;;;26.30;3.97;;;;;;;6.85;100.00;101275.97;5013956;28;20490;-64
2023/01/14 03:34:13;;;;;;;28.65;4.85;;;;;;;6.80;100.00;101268.16;4991817;28;20165;-63
2023/01/14 03:36:40;;;;;;;31.80;4.40;;;;;;;6.90;100.00;101261.06;4991943;28;20109;-63
2023/01/14 03:39:10;;;;;;;35.15;4.95;;;;;;;6.95;100.00;101263.59;4980792;28;20029;-63
2023/01/14 03:44:26;;;;;;;30.27;4.43;;;;;;;6.98;100.00;101262.72;5014722;28;20040;-63
2023/01/14 03:46:52;;;;;;;28.10;5.05;;;;;;;6.94;100.00;101260.16;5012239;28;20068;-60
2023/01/14 03:49:17;;;;;;;38.38;5.85;;;;;;;6.98;100.00;101250.47;5011132;28;20416;-63
2023/01/14 03:51:57;;;;;;;29.67;4.90;;;;;;;7.01;100.00;101244.34;5029434;28;20486;-62
2023/01/14 03:54:48;;;;;;;37.47;5.75;;;;;;;7.01;100.00;101228.63;5011425;28;20034;-62
2023/01/14 03:57:26;;;;;;;37.45;4.93;;;;;;;7.00;100.00;101217.28;5012454;28;20080;-62
2023/01/14 03:59:51;;;;;;;46.40;5.80;;;;;;;6.99;100.00;101218.16;4989349;28;20037;-62
2023/01/14 04:02:17;;;;;;;29.52;5.65;;;;;;;6.95;100.00;101211.22;4989648;28;20112;-61
2023/01/14 04:04:44;;;;;;;39.05;6.07;;;;;;;6.97;100.00;101198.97;4989072;28;20038;-64
2023/01/14 04:07:09;;;;;;;44.67;5.65;;;;;;;7.06;100.00;101193.63;4988453;28;20037;-65
2023/01/14 04:09:35;;;;;;;40.97;6.82;;;;;;;7.02;100.00;101194.56;4992264;28;20046;-65
2023/01/14 04:12:00;;;;;;;38.58;5.07;;;;;;;7.07;100.00;101183.97;5009119;28;20025;-61
2023/01/14 04:17:09;;;;;;;31.48;4.90;;;;;;;7.18;100.00;101169.00;5009816;28;20072;-63
2023/01/14 04:19:35;;;;;;;31.73;5.85;;;;;;;7.15;100.00;101165.53;5008060;28;20053;-64
2023/01/14 04:22:00;;;;;;;41.22;5.57;;;;;;;7.19;100.00;101161.97;5009672;28;20056;-63
2023/01/14 04:24:25;;;;;;;36.58;5.90;;;;;;;7.28;100.00;101164.47;5017816;28;20434;-65
2023/01/14 04:26:51;;;;;;;34.83;4.78;;;;;;;7.33;100.00;101156.53;5029480;28;20450;-64
2023/01/14 04:29:16;;;;;;;43.58;6.47;;;;;;;7.33;100.00;101157.41;5028865;28;20418;-63
2023/01/14 04:31:41;;;;;;;32.55;4.68;;;;;;;7.34;100.00;101153.03;5028911;28;20391;-64
2023/01/14 04:34:08;;;;;;;32.85;5.03;;;;;;;7.24;100.00;101141.81;5009961;28;20458;-62
2023/01/14 04:36:34;;;;;;;35.15;4.97;;;;;;;7.24;100.00;101140.94;5029077;28;20025;-63
2023/01/14 04:38:59;;;;;;;45.03;4.88;;;;;;;7.31;100.00;101137.34;5029007;28;20040;-63
2023/01/14 04:44:09;;;;;;;36.40;4.72;;;;;;;7.23;100.00;101137.47;4975028;28;20080;-64
2023/01/14 04:46:34;;;;;;;27.45;5.15;;;;;;;7.21;100.00;101131.38;4988947;28;20457;-66
2023/01/14 04:48:59;;;;;;;29.38;5.20;;;;;;;7.26;100.00;101128.69;4970573;28;20443;-63
2023/01/14 04:51:25;;;;;;;30.83;4.97;;;;;;;7.28;100.00;101122.53;4995195;28;20037;-66
2023/01/14 04:53:50;;;;;;;37.08;6.15;;;;;;;7.26;100.00;101105.09;5009078;28;20029;-63
2023/01/14 04:56:15;;;;;;;39.28;7.55;;;;;;;7.29;100.00;101108.53;5009189;28;20065;-65
2023/01/14 04:58:41;;;;;;;29.73;5.65;;;;;;;7.32;100.00;101105.84;5009139;28;20036;-65
2023/01/14 05:01:06;;;;;;;31.20;3.97;;;;;;;7.30;100.00;101114.63;5005540;28;20030;-63
2023/01/14 05:03:31;;;;;;;39.65;5.15;;;;;;;7.37;100.00;101100.53;5008067;28;20049;-63
2023/01/14 05:05:57;;;;;;;33.58;5.47;;;;;;;7.46;100.00;101089.03;5007717;28;20026;-64
2023/01/14 05:08:22;;;;;;;30.60;4.65;;;;;;;7.40;100.00;101090.00;5008104;28;20439;-66
2023/01/14 05:10:50;;;;;;;31.08;4.25;;;;;;;7.50;100.00;101087.22;5007113;28;20404;-61
2023/01/14 05:13:16;;;;;;;33.58;4.60;;;;;;;7.43;100.00;101086.47;5008807;28;20026;-62
2023/01/14 05:15:43;;;;;;;30.10;5.15;;;;;;;7.38;100.00;101080.44;5008036;28;20030;-65
2023/01/14 05:18:11;;;;;;;27.20;4.85;;;;;;;7.37;100.00;101070.84;5007708;28;20076;-64
2023/01/14 05:20:36;;;;;;;27.63;4.20;;;;;;;7.50;100.00;101064.50;5007361;28;20079;-65
2023/01/14 05:23:05;;;;;;;37.65;5.28;;;;;;;7.49;100.00;101051.44;5008405;28;20026;-65
2023/01/14 05:25:31;;;;;;;27.48;6.25;;;;;;;7.43;100.00;101040.13;5008408;28;20026;-66
2023/01/14 05:28:01;;;;;;;33.90;4.22;;;;;;;7.45;100.00;101041.00;5004127;28;20055;-65
2023/01/14 05:30:27;;;;;;;34.85;4.80;;;;;;;7.53;100.00;101040.81;5002695;28;20034;-64
2023/01/14 05:32:52;;;;;;;30.67;4.63;;;;;;;7.37;100.00;101052.50;5003944;28;20487;-66
2023/01/14 05:35:18;;;;;;;29.33;4.88;;;;;;;7.47;100.00;101035.72;5019734;28;20025;-61
2023/01/14 05:37:43;;;;;;;29.85;4.03;;;;;;;7.54;100.00;101018.09;5009025;28;20018;-64
2023/01/14 05:40:10;;;;;;;31.08;4.57;;;;;;;7.52;100.00;101027.75;5015784;28;20026;-64
2023/01/14 05:48:02;;;;;;;25.95;4.57;;;;;;;7.50;100.00;101001.59;5007099;28;20040;-64
2023/01/14 05:50:28;;;;;;;27.35;4.28;;;;;;;7.54;100.00;101002.38;5007807;28;20026;-64
2023/01/14 05:52:53;;;;;;;27.98;4.70;;;;;;;7.52;100.00;100981.41;5007582;28;20109;-64
2023/01/14 05:55:18;;;;;;;30.70;4.57;;;;;;;7.40;100.00;100990.38;5003959;28;20022;-63
2023/01/14 05:57:44;;;;;;;31.83;5.07;;;;;;;7.46;100.00;100971.03;5004677;28;20102;-65
2023/01/14 06:06:20;;;;;;;28.55;5.10;;;;;;;7.44;100.00;100964.97;5006750;28;20087;-64
2023/01/14 06:08:23;;;;;;;27.50;4.28;;;;;;;7.50;100.00;100943.91;5007671;28;20049;-64
2023/01/14 06:10:49;;;;;;;32.85;5.20;;;;;;;7.54;100.00;100935.06;5002777;28;20039;-64
2023/01/14 06:13:14;;;;;;;24.73;3.83;;;;;;;7.52;100.00;100939.47;5008985;28;20026;-65
2023/01/14 06:15:40;;;;;;;38.85;4.80;;;;;;;7.46;100.00;100915.97;5026966;28;20056;-64
2023/01/14 06:18:09;;;;;;;32.25;5.15;;;;;;;7.52;100.00;100925.47;5029829;28;20519;-64
2023/01/14 06:20:38;;;;;;;20.77;4.13;;;;;;;7.54;100.00;100911.47;4991982;28;20034;-64
2023/01/14 06:23:04;;;;;;;28.17;4.70;;;;;;;7.50;100.00;100901.06;4990838;28;20037;-65
2023/01/14 06:25:31;;;;;;;24.55;4.28;;;;;;;7.51;100.00;100898.41;4991378;28;20352;-65
2023/01/14 06:27:57;;;;;;;32.47;4.57;;;;;;;7.54;100.00;100882.63;4997311;28;20068;-65
2023/01/14 06:30:22;;;;;;;32.47;3.90;;;;;;;7.56;100.00;100878.19;4993556;28;20113;-62
2023/01/14 06:32:48;;;;;;;24.98;3.47;;;;;;;7.51;100.00;100877.44;5009586;28;20124;-65
2023/01/14 06:35:13;;;;;;;17.60;3.83;;;;;;;7.51;100.00;100869.56;5010235;28;20052;-66
2023/01/14 06:37:42;;;;;;;21.17;3.90;;;;;;;7.56;100.00;100859.00;5022962;28;20025;-65
2023/01/14 06:40:08;;;;;;;22.95;4.15;;;;;;;7.42;100.00;100851.41;5030328;28;20135;-66
2023/01/14 06:42:34;;;;;;;29.52;5.40;;;;;;;7.42;100.00;100848.78;5012079;28;20044;-66
2023/01/14 06:44:59;;;;;;;31.65;4.97;;;;;;;7.47;100.00;100836.47;5029302;28;20096;-62
2023/01/14 06:47:24;;;;;;;28.02;4.47;;;;;;;7.40;100.00;100824.34;5010846;28;20026;-64
2023/01/14 06:49:50;;;;;;;28.63;4.25;;;;;;;7.33;100.00;100826.25;5010424;28;20109;-68
2023/01/14 06:52:15;;;;;;;32.03;3.92;;;;;;;7.15;100.00;100811.75;4993339;28;20118;-66
2023/01/14 06:54:40;;;;;;;22.55;3.38;;;;;;;7.22;100.00;100802.88;5010270;28;20033;-65
2023/01/14 06:57:05;;;;;;;27.40;3.90;;;;;;;7.31;100.00;100793.94;5010619;28;20022;-63
2023/01/14 06:59:31;;;;;;;31.95;4.28;;;;;;;7.16;100.00;100788.13;4992356;28;20068;-64
2023/01/14 07:01:56;;;;;;;30.00;4.10;;;;;;;7.27;100.00;100779.19;5010444;28;20037;-63
2023/01/14 07:04:22;;;;;;;29.70;4.05;;;;;;;7.22;100.00;100763.56;5020985;28;20371;-62
2023/01/14 07:06:49;;;;;;;26.65;4.18;;;;;;;7.29;100.00;100759.06;5018063;28;20022;-62
2023/01/14 07:09:14;;;;;;;39.55;4.60;;;;;;;7.25;100.00;100758.25;5009143;28;20133;-58
2023/01/14 07:11:41;;;;;;;23.77;4.63;;;;;;;7.18;100.00;100752.28;5009790;28;20109;-58
2023/01/14 07:14:07;;;;;;;18.20;3.38;;;;;;;7.17;100.00;100737.44;5010249;28;20466;-61
2023/01/14 07:16:32;;;;;;;20.45;3.92;;;;;;;7.17;100.00;100731.34;5009435;28;20037;-61
2023/01/14 07:18:58;;;;;;;22.80;4.22;;;;;;;7.17;100.00;100737.44;5008977;28;20022;-61
2023/01/14 07:21:24;;;;;;;28.35;4.47;;;;;;;7.13;100.00;100708.75;5009650;28;20061;-61
2023/01/14 07:23:50;;;;;;;29.33;4.30;;;;;;;7.20;100.00;100700.69;5009782;28;20101;-60
2023/01/14 07:26:16;;;;;;;25.35;3.97;;;;;;;7.28;100.00;100683.91;5008919;28;20125;-61
2023/01/14 07:28:41;;;;;;;23.60;4.82;;;;;;;7.07;100.00;100679.13;5008571;28;20061;-61
2023/01/14 07:31:07;;;;;;;23.98;4.05;;;;;;;7.18;100.00;100683.28;5009863;28;20026;-60
2023/01/14 07:33:33;;;;;;;20.50;4.07;;;;;;;7.19;100.00;100662.28;5008157;28;20030;-59
2023/01/14 07:35:58;;;;;;;22.33;3.75;;;;;;;7.17;100.00;100661.44;5009786;28;20392;-60
2023/01/14 07:38:23;;;;;;;16.50;3.72;;;;;;;7.18;100.00;100643.97;5011551;28;20069;-58
2023/01/14 07:40:49;;;;;;;20.17;4.22;;;;;;;7.30;100.00;100635.84;5011053;28;20117;-61
2023/01/14 07:43:15;;;;;;;14.63;4.15;;;;;;;7.21;100.00;100622.94;5009710;28;20142;-53
2023/01/14 07:45:41;;;;;;;24.33;4.15;;;;;;;7.26;100.00;100615.84;5009781;28;20080;-56
2023/01/14 07:48:06;;;;;;;20.35;5.40;;;;;;;7.19;100.00;100609.88;5007892;28;20034;-59
2023/01/14 07:50:32;;;;;;;21.77;3.53;;;;;;;7.23;100.00;100605.44;5009461;28;20514;-58
2023/01/14 07:52:59;;;;;;;23.83;3.45;;;;;;;7.19;100.00;100593.28;5008000;28;20018;-56
2023/01/14 07:55:25;;;;;;;15.73;3.60;;;;;;;7.24;100.00;100588.78;5008375;28;20018;-59
2023/01/14 07:57:50;;;;;;;13.85;3.30;;;;;;;7.22;100.00;100584.50;5009778;28;20143;-58
2023/01/14 08:00:16;;;;;;;17.45;4.03;;;;;;;7.12;100.00;100566.38;5008723;28;20454;-59
2023/01/14 08:02:42;;;;;;;19.00;4.57;;;;;;;7.23;100.00;100571.38;4990685;28;20028;-59
2023/01/14 08:05:07;;;;;;;13.00;3.67;;;;;;;7.32;100.00;100562.41;5009738;28;20034;-55
2023/01/14 08:07:32;;;;;;;14.00;3.72;;;;;;;7.22;100.00;100551.28;5008738;28;20519;-59
2023/01/14 08:09:58;;;;;;;19.02;3.63;;;;;;;7.33;100.00;100545.78;5005025;28;20117;-58
2023/01/14 08:12:24;;;;;;;18.77;3.70;;;;;;;7.28;100.00;100542.38;5008147;28;20121;-60
2023/01/14 08:14:50;;;;;;;13.45;3.38;;;;;;;7.40;100.00;100534.22;5006540;28;20030;-58
2023/01/14 08:17:15;;;;;;;15.85;4.40;;;;;;;7.33;100.00;100530.91;5009012;28;20022;-57
2023/01/14 08:19:41;;;;;;;12.40;3.92;;;;;;;7.43;100.00;100518.44;5008502;28;20022;-59
2023/01/14 08:22:06;;;;;;;14.93;3.72;;;;;;;7.54;100.00;100520.78;5009545;28;20026;-59
2023/01/14 08:24:31;;;;;;;13.02;4.20;;;;;;;7.51;100.00;100518.22;4991022;28;20030;-57
2023/01/14 08:26:56;;;;;;;11.07;4.05;;;;;;;7.53;100.00;100503.31;4988593;28;20069;-60
2023/01/14 08:29:22;;;;;;;14.20;4.32;;;;;;;7.60;100.00;100485.66;4989186;28;20026;-57
2023/01/14 08:31:51;;;;;;;17.10;4.50;;;;;;;7.58;100.00;100490.06;4993758;28;20061;-58
2023/01/14 08:34:17;;;;;;;12.13;4.13;;;;;;;7.62;100.00;100485.63;5008802;28;20117;-61
2023/01/14 08:36:44;;;;;;;9.40;4.10;;;;;;;7.65;100.00;100475.03;5007964;28;20584;-59
2023/01/14 08:39:09;;;;;;;11.70;4.43;;;;;;;7.73;100.00;100462.56;5007132;28;20026;-57
2023/01/14 08:41:35;;;;;;;12.27;4.22;;;;;;;7.79;100.00;100453.66;5007784;28;20037;-58
2023/01/14 08:44:01;;;;;;;11.73;4.10;;;;;;;7.84;100.00;100455.28;5008201;28;20112;-57
2023/01/14 08:46:26;;;;;;;11.27;4.90;;;;;;;7.89;100.00;100435.91;5007321;28;20022;-54
2023/01/14 08:48:51;;;;;;;12.45;4.32;;;;;;;7.87;100.00;100432.47;5006930;28;20022;-58
2023/01/14 08:51:17;;;;;;;11.35;4.28;;;;;;;7.90;100.00;100427.13;5007665;28;20037;-57
2023/01/14 08:53:43;;;;;;;10.10;3.83;;;;;;;8.02;100.00;100405.78;5007891;28;20125;-60
2023/01/14 08:56:11;;;;;;;13.02;4.15;;;;;;;8.05;100.00;100403.06;5006071;28;20489;-64
2023/01/14 08:58:36;;;;;;;8.77;4.20;;;;;;;8.12;100.00;100395.84;5007863;28;20030;-60
2023/01/14 09:01:05;;;;;;;6.82;3.42;;;;;;;8.12;100.00;100390.59;5006865;28;20040;-59
2023/01/14 09:03:32;;;;;;;7.15;3.35;;;;;;;8.12;100.00;100359.13;5007551;28;20113;-59
2023/01/14 09:05:58;;;;;;;11.25;4.18;;;;;;;8.18;100.00;100352.81;5006924;28;20029;-57
2023/01/14 09:17:05;;;;;;;11.07;3.25;;;;;;;8.41;100.00;100348.59;4996756;28;20040;-58
2023/01/14 09:19:47;;;;;;;12.65;3.13;;;;;;;8.53;100.00;100347.31;5004141;28;20368;-60
2023/01/14 09:22:16;;;;;;;11.10;2.97;;;;;;;8.52;100.00;100319.34;4999400;28;20379;-58
2023/01/14 09:24:41;;;;;;;16.92;2.85;;;;;;;8.43;100.00;100323.16;4990211;28;20057;-60
2023/01/14 09:27:06;;;;;;;9.93;2.63;;;;;;;8.59;100.00;100316.50;5007045;28;20046;-60
2023/01/14 09:29:32;;;;;;;7.90;2.35;;;;;;;8.56;100.00;100321.00;4999526;28;20018;-58
2023/01/14 09:31:57;;;;;;;12.10;2.80;;;;;;;8.64;100.00;100324.22;4997535;28;20021;-59
2023/01/14 09:34:23;;;;;;;9.88;2.67;;;;;;;8.67;100.00;100307.50;5007566;28;20017;-62
2023/01/14 09:36:49;;;;;;;9.18;2.78;;;;;;;8.61;100.00;100300.66;5004652;28;20033;-59
2023/01/14 09:39:15;;;;;;;11.00;3.25;;;;;;;8.71;100.00;100291.59;5006368;28;20021;-60
2023/01/14 09:41:58;;;;;;;13.25;4.22;;;;;;;8.77;100.00;100282.63;5004401;28;20377;-58
2023/01/14 09:44:24;;;;;;;5.88;2.20;;;;;;;8.81;100.00;100252.72;5005937;28;20503;-60
2023/01/14 09:46:51;;;;;;;10.00;2.33;;;;;;;8.77;100.00;100250.25;4983966;28;20030;-59
2023/01/14 09:49:20;;;;;;;8.48;2.38;;;;;;;8.84;100.00;100236.84;5005866;28;20018;-57
2023/01/14 09:52:16;;;;;;;4.97;2.17;;;;;;;8.72;100.00;100227.63;4989141;28;20034;-59
2023/01/14 09:54:53;;;;;;;10.07;2.50;;;;;;;8.87;100.00;100221.84;5005674;28;20038;-59
2023/01/14 09:57:39;;;;;;;6.93;2.30;;;;;;;8.79;100.00;100215.13;5006831;28;20056;-59
2023/01/14 10:00:25;;;;;;;8.13;2.35;;;;;;;8.87;100.00;100203.47;4991520;28;20022;-62
2023/01/14 10:02:56;;;;;;;11.07;2.08;;;;;;;8.92;100.00;100198.91;4988955;28;20032;-57
2023/01/14 10:05:29;;;;;;;8.43;2.25;;;;;;;8.98;100.00;100181.13;4991744;28;20027;-58
2023/01/14 10:08:01;;;;;;;14.50;2.53;;;;;;;9.00;100.00;100175.81;4987449;28;20037;-58
2023/01/14 10:10:36;;;;;;;9.40;2.60;;;;;;;9.00;100.00;100161.84;4988971;28;20057;-59
2023/01/14 10:13:10;;;;;;;12.20;3.00;;;;;;;9.06;100.00;100135.34;4988928;28;20030;-59
2023/01/14 10:15:49;;;;;;;6.85;1.90;;;;;;;9.08;100.00;100133.47;4989776;28;20113;-60
2023/01/14 10:18:28;;;;;;;6.65;2.15;;;;;;;9.11;100.00;100128.09;4986381;28;20124;-60
2023/01/14 10:20:59;;;;;;;9.40;2.25;;;;;;;9.06;100.00;100115.13;5005998;28;20022;-63
2023/01/14 10:23:37;;;;;;;8.48;2.22;;;;;;;9.15;100.00;100107.81;5006066;28;20530;-59
2023/01/14 10:26:14;;;;;;;9.88;2.25;;;;;;;9.18;100.00;100103.28;5020469;28;20026;-60
2023/01/14 10:28:41;;;;;;;9.32;2.45;;;;;;;9.20;100.00;100111.13;5006425;28;20420;-61
2023/01/14 10:31:06;;;;;;;7.65;2.20;;;;;;;9.25;100.00;100085.50;4988898;28;20031;-59
2023/01/14 10:33:31;;;;;;;7.75;1.85;;;;;;;9.22;100.00;100061.97;5005467;28;20018;-60
2023/01/14 10:35:59;;;;;;;4.65;1.75;;;;;;;9.34;100.00;100081.66;5006270;28;20022;-60
2023/01/14 10:38:26;;;;;;;3.75;1.70;;;;;;;9.40;100.00;100055.09;4990632;28;20022;-59
2023/01/14 10:40:54;;;;;;;10.45;1.90;;;;;;;9.30;100.00;100051.97;4988702;28;20026;-60
2023/01/14 10:43:42;;;;;;;7.78;1.73;;;;;;;9.40;100.00;100055.09;5006590;28;20500;-58
2023/01/14 10:46:18;;;;;;;10.07;1.67;;;;;;;9.43;100.00;100039.19;5003815;28;20080;-57
2023/01/14 10:48:49;;;;;;;5.75;1.38;;;;;;;9.40;100.00;100027.94;5004736;28;20113;-61
2023/01/14 10:51:36;;;;;;;7.30;1.83;;;;;;;9.49;100.00;100019.69;5006385;28;20044;-60
2023/01/14 10:54:16;;;;;;;2.45;1.35;;;;;;;9.55;100.00;100013.28;5006375;28;20530;-58
2023/01/14 10:56:51;;;;;;;3.35;1.40;;;;;;;9.56;100.00;100000.09;5001899;28;20032;-60
2023/01/14 10:59:38;;;;;;;5.57;1.80;;;;;;;9.56;100.00;99996.59;5021092;28;20503;-60
2023/01/14 11:02:05;;;;;;;5.63;1.42;;;;;;;9.61;100.00;99978.84;4987372;28;20030;-58
2023/01/14 11:04:31;;;;;;;3.40;1.58;;;;;;;9.58;100.00;99985.06;4992703;28;20026;-59
2023/01/14 11:06:57;;;;;;;8.90;1.85;;;;;;;9.57;100.00;99966.75;5006698;28;20033;-60
2023/01/14 11:09:28;;;;;;;3.33;1.40;;;;;;;9.58;100.00;99957.94;5001202;28;20125;-61
2023/01/14 11:11:55;;;;;;;2.92;1.35;;;;;;;9.71;100.00;99967.00;4989281;28;20038;-57
2023/01/14 11:14:23;;;;;;;3.83;1.50;;;;;;;9.67;100.00;99961.94;4974881;28;20045;-58
2023/01/14 11:16:49;;;;;;;5.77;1.47;;;;;;;9.81;100.00;99954.25;4989993;28;20070;-58
2023/01/14 11:19:14;;;;;;;3.53;1.10;;;;;;;9.68;100.00;99942.59;4989947;28;20504;-58
2023/01/14 11:21:42;;;;;;;3.63;1.33;;;;;;;9.77;100.00;99936.91;4990584;28;20033;-60
2023/01/14 11:24:26;;;;;;;8.00;1.40;;;;;;;9.83;100.00;99920.84;4971432;28;20045;-57
2023/01/14 11:27:01;;;;;;;5.85;1.48;;;;;;;9.91;100.00;99938.06;4972970;28;20029;-61
2023/01/14 11:29:30;;;;;;;2.55;1.20;;;;;;;9.81;100.00;99932.38;4990374;28;20045;-59
2023/01/14 11:32:07;;;;;;;4.60;1.13;;;;;;;9.80;100.00;99905.22;4989831;28;20034;-57
2023/01/14 11:34:36;;;;;;;3.40;1.20;;;;;;;9.90;100.00;99878.47;4972540;28;20057;-59
2023/01/14 11:37:10;;;;;;;3.42;1.15;;;;;;;9.92;100.00;99876.63;4972705;28;20035;-59
2023/01/14 11:39:37;;;;;;;4.32;1.15;;;;;;;9.95;100.00;99897.53;4989124;28;20088;-59
2023/01/14 11:42:23;;;;;;;4.07;1.30;;;;;;;9.94;100.00;99865.09;5009708;28;20091;-58
2023/01/14 11:45:10;;;;;;;6.30;1.50;;;;;;;9.94;100.00;99890.56;4975444;28;20365;-57
2023/01/14 11:47:55;;;;;;;2.50;1.33;;;;;;;9.99;100.00;99878.03;4989210;28;20528;-59
2023/01/14 11:50:34;;;;;;;3.67;1.23;;;;;;;10.05;100.00;99850.59;4968435;28;20038;-55
2023/01/14 11:53:18;;;;;;;8.45;1.25;;;;;;;10.03;100.00;99853.28;4970141;28;20037;-58
2023/01/14 11:55:47;;;;;;;1.40;1.08;;;;;;;10.09;100.00;99863.50;4971538;28;20034;-58
2023/01/14 11:58:17;;;;;;;2.78;1.13;;;;;;;10.09;100.00;99834.56;4970114;28;20034;-60
2023/01/14 12:00:46;;;;;;;3.60;2.42;;;;;;;10.17;100.00;99841.25;4989815;28;20045;-62